createdAt,value
2018-08-07T00:02:10.207Z,101107.89
2018-08-07T00:04:38.584Z,101106.74
2018-08-07T00:07:07.043Z,101104.77
2018-08-07T00:09:35.435Z,101106.02
2018-08-07T00:12:03.799Z,101100.09
2018-08-07T00:14:32.176Z,101100.20
2018-08-07T00:17:00.532Z,101102.17
2018-08-07T00:19:28.967Z,101094.48
2018-08-07T00:21:57.349Z,101093.59
2018-08-07T00:24:25.695Z,101100.56
2018-08-07T00:26:54.100Z,101097.83
2018-08-07T00:29:22.496Z,101090.50
2018-08-07T00:31:50.872Z,101092.01
2018-08-07T00:34:19.344Z,101091.39
2018-08-07T00:36:47.736Z,101092.26
2018-08-07T00:39:17.227Z,101087.55
2018-08-07T00:41:45.601Z,101079.61
2018-08-07T00:44:13.980Z,101079.61
2018-08-07T00:46:42.343Z,101088.80
2018-08-07T00:49:10.741Z,101076.30
2018-08-07T00:51:39.090Z,101071.70
2018-08-07T00:54:07.439Z,101071.70
2018-08-07T00:56:35.829Z,101068.36
2018-08-07T00:59:04.536Z,101068.75
2018-08-07T01:01:32.912Z,101059.44
2018-08-07T01:04:01.307Z,101056.72
2018-08-07T01:06:29.682Z,101054.13
2018-08-07T01:08:58.052Z,101057.99
2018-08-07T01:11:26.412Z,101053.53
2018-08-07T01:13:54.754Z,101049.08
2018-08-07T01:16:23.127Z,101044.59
2018-08-07T01:18:51.541Z,101043.11
2018-08-07T01:21:19.960Z,101036.17
2018-08-07T01:23:48.356Z,101045.87
2018-08-07T01:26:16.704Z,101047.34
2018-08-07T01:28:45.086Z,101049.34
2018-08-07T01:31:13.435Z,101037.56
2018-08-07T01:33:41.816Z,101032.99
2018-08-07T01:36:10.194Z,101037.34
2018-08-07T01:38:38.572Z,101032.77
2018-08-07T01:41:06.982Z,101037.72
2018-08-07T01:43:35.359Z,101038.69
2018-08-07T01:46:03.740Z,101032.88
2018-08-07T01:48:32.119Z,101034.38
2018-08-07T01:51:00.462Z,101034.13
2018-08-07T01:53:28.813Z,101028.15
2018-08-07T01:56:02.888Z,101023.94
2018-08-07T01:58:31.292Z,101025.55
2018-08-07T02:00:59.641Z,101023.93
2018-08-07T02:03:28.030Z,101024.83
2018-08-07T02:05:56.373Z,101024.06
2018-08-07T02:08:24.748Z,101027.80
2018-08-07T02:10:53.100Z,101021.48
2018-08-07T02:13:21.511Z,101017.77
2018-08-07T02:15:49.863Z,101023.56
2018-08-07T02:18:18.269Z,101020.25
2018-08-07T02:20:46.619Z,101017.25
2018-08-07T02:23:15.028Z,101015.02
2018-08-07T02:25:43.374Z,101012.54
2018-08-07T02:28:11.749Z,101016.77
2018-08-07T02:30:40.094Z,101016.63
2018-08-07T02:33:08.481Z,101015.27
2018-08-07T02:35:36.854Z,101015.52
2018-08-07T02:38:05.234Z,101009.95
2018-08-07T02:40:33.615Z,101015.91
2018-08-07T02:43:01.961Z,101015.15
2018-08-07T02:46:54.750Z,101011.42
2018-08-07T02:49:23.195Z,101006.12
2018-08-07T02:51:51.574Z,101005.72
2018-08-07T02:54:19.981Z,101001.41
2018-08-07T02:56:48.334Z,101004.23
2018-08-07T02:59:16.711Z,101000.02
2018-08-07T03:01:45.092Z,100993.20
2018-08-07T03:04:13.473Z,100993.61
2018-08-07T03:06:41.904Z,100988.03
2018-08-07T03:09:11.313Z,100991.12
2018-08-07T03:11:39.806Z,100990.86
2018-08-07T03:14:08.678Z,100990.07
2018-08-07T03:16:37.072Z,100998.55
2018-08-07T03:19:05.552Z,100995.42
2018-08-07T03:21:33.900Z,100988.45
2018-08-07T03:24:02.282Z,100984.00
2018-08-07T03:26:30.686Z,100986.59
2018-08-07T03:28:59.143Z,100987.82
2018-08-07T03:31:27.581Z,100992.53
2018-08-07T03:33:56.281Z,100988.59
2018-08-07T03:36:24.755Z,100991.91
2018-08-07T03:38:53.172Z,100993.27
2018-08-07T03:41:21.577Z,100999.71
2018-08-07T03:43:50.037Z,100997.48
2018-08-07T03:46:18.434Z,100996.98
2018-08-07T03:48:46.859Z,100996.36
2018-08-07T03:51:15.302Z,100998.95
2018-08-07T03:53:43.745Z,100999.45
2018-08-07T03:56:12.124Z,101000.55
2018-08-07T03:58:40.645Z,101004.62
2018-08-07T04:01:09.094Z,101002.13
2018-08-07T04:03:37.531Z,100998.65
2018-08-07T04:06:06.051Z,101000.64
2018-08-07T04:08:34.475Z,101001.87
2018-08-07T04:11:02.984Z,101001.13
2018-08-07T04:13:31.468Z,100994.92
2018-08-07T04:15:59.881Z,100998.38
2018-08-07T04:18:28.291Z,100988.25
2018-08-07T04:20:57.145Z,100991.48
2018-08-07T04:23:25.599Z,100992.70
2018-08-07T04:25:53.976Z,100987.39
2018-08-07T04:28:22.404Z,100986.26
2018-08-07T04:30:50.774Z,100986.02
2018-08-07T04:33:19.177Z,100990.74
2018-08-07T04:35:47.601Z,100990.74
2018-08-07T04:38:15.985Z,100992.47
2018-08-07T04:40:44.460Z,100992.23
2018-08-07T04:43:12.891Z,100994.09
2018-08-07T04:45:41.350Z,100992.38
2018-08-07T04:48:09.817Z,100992.87
2018-08-07T04:50:38.207Z,100992.14
2018-08-07T04:53:06.612Z,100995.96
2018-08-07T04:55:34.994Z,100995.36
2018-08-07T04:58:03.443Z,100994.63
2018-08-07T05:00:31.825Z,100993.03
2018-08-07T05:03:00.239Z,100994.89
2018-08-07T05:05:28.712Z,100994.45
2018-08-07T05:07:57.145Z,100994.81
2018-08-07T05:10:25.641Z,100992.48
2018-08-07T05:12:54.074Z,100988.51
2018-08-07T05:15:22.503Z,100985.05
2018-08-07T05:17:51.014Z,100994.20
2018-08-07T05:20:19.380Z,100993.09
2018-08-07T05:22:47.827Z,101006.73
2018-08-07T05:25:16.261Z,101001.51
2018-08-07T05:27:44.713Z,100999.53
2018-08-07T05:30:14.692Z,101000.39
2018-08-07T05:32:43.354Z,100999.65
2018-08-07T05:35:12.862Z,101002.38
2018-08-07T05:37:41.335Z,101003.37
2018-08-07T05:40:10.734Z,100997.14
2018-08-07T05:42:39.576Z,101004.48
2018-08-07T05:45:09.436Z,100998.64
2018-08-07T05:47:37.881Z,101000.95
2018-08-07T05:50:09.277Z,100994.75
2018-08-07T05:52:37.722Z,101003.52
2018-08-07T05:55:06.188Z,101002.72
2018-08-07T05:57:34.580Z,101000.31
2018-08-07T06:00:03.158Z,101000.81
2018-08-07T06:03:55.982Z,100997.07
2018-08-07T06:06:24.418Z,100999.13
2018-08-07T06:08:52.850Z,100999.64
2018-08-07T06:11:21.256Z,100990.92
2018-08-07T06:13:49.670Z,100999.93
2018-08-07T06:16:18.080Z,100991.20
2018-08-07T06:18:46.505Z,101000.05
2018-08-07T06:21:14.923Z,101001.51
2018-08-07T06:23:43.337Z,101002.47
2018-08-07T06:26:11.730Z,100992.33
2018-08-07T06:28:40.174Z,101001.54
2018-08-07T06:31:08.532Z,100998.91
2018-08-07T06:33:37.021Z,100998.36
2018-08-07T06:36:05.503Z,100997.66
2018-08-07T06:38:33.907Z,100996.85
2018-08-07T06:41:02.319Z,100993.61
2018-08-07T06:43:30.796Z,100986.88
2018-08-07T06:45:59.279Z,100987.52
2018-08-07T06:48:27.640Z,100988.55
2018-08-07T06:50:56.046Z,100984.88
2018-08-07T06:53:24.419Z,100980.41
2018-08-07T06:55:52.830Z,100984.92
2018-08-07T06:58:21.248Z,100981.49
2018-08-07T07:00:49.654Z,100986.23
2018-08-07T07:03:18.034Z,100979.76
2018-08-07T07:05:46.842Z,100985.72
2018-08-07T07:08:15.201Z,100978.25
2018-08-07T07:10:43.575Z,100975.23
2018-08-07T07:13:12.058Z,100970.39
2018-08-07T07:15:40.517Z,100972.40
2018-08-07T07:18:08.938Z,100971.20
2018-08-07T07:20:37.357Z,100963.94
2018-08-07T07:23:05.787Z,100966.26
2018-08-07T07:25:34.280Z,100959.23
2018-08-07T07:28:02.693Z,100961.88
2018-08-07T07:30:31.103Z,100951.44
2018-08-07T07:32:59.526Z,100959.80
2018-08-07T07:35:27.960Z,100959.94
2018-08-07T07:37:56.360Z,100950.27
2018-08-07T07:40:24.727Z,100949.64
2018-08-07T07:42:53.080Z,100947.02
2018-08-07T07:45:21.558Z,100945.27
2018-08-07T07:47:50.028Z,100939.98
2018-08-07T07:50:19.979Z,100935.31
2018-08-07T07:52:48.485Z,100935.88
2018-08-07T07:55:17.840Z,100938.30
2018-08-07T07:57:46.303Z,100931.45
2018-08-07T08:00:21.578Z,100925.66
2018-08-07T08:02:50.340Z,100929.06
2018-08-07T08:05:18.972Z,100922.71
2018-08-07T08:07:47.273Z,100923.53
2018-08-07T08:10:15.783Z,100921.85
2018-08-07T08:12:44.208Z,100920.50
2018-08-07T08:15:14.650Z,100911.87
2018-08-07T08:17:43.799Z,100919.13
2018-08-07T08:20:16.723Z,100912.23
2018-08-07T08:22:45.090Z,100908.81
2018-08-07T08:25:13.483Z,100898.96
2018-08-07T08:27:42.040Z,100903.70
2018-08-07T08:30:13.001Z,100905.28
2018-08-07T08:32:41.630Z,100907.13
2018-08-07T08:35:12.213Z,100913.94
2018-08-07T08:37:41.178Z,100902.41
2018-08-07T08:40:12.405Z,100903.48
2018-08-07T08:42:41.362Z,100904.23
2018-08-07T08:45:17.971Z,100900.59
2018-08-07T08:47:47.534Z,100896.69
2018-08-07T08:50:17.390Z,100901.66
2018-08-07T08:52:45.886Z,100894.48
2018-08-07T08:55:14.482Z,100892.48
2018-08-07T08:57:44.130Z,100890.55
2018-08-07T09:00:21.997Z,100897.50
2018-08-07T09:02:50.432Z,100887.15
2018-08-07T09:05:18.855Z,100894.64
2018-08-07T09:07:47.294Z,100896.91
2018-08-07T09:10:19.061Z,100895.31
2018-08-07T09:12:47.665Z,100890.52
2018-08-07T09:15:16.193Z,100887.11
2018-08-07T09:17:44.610Z,100889.38
2018-08-07T09:20:20.288Z,100891.75
2018-08-07T09:22:48.701Z,100893.63
2018-08-07T09:25:17.399Z,100885.16
2018-08-07T09:27:45.890Z,100880.06
2018-08-07T09:30:16.912Z,100878.06
2018-08-07T09:32:46.269Z,100882.20
2018-08-07T09:35:15.464Z,100877.23
2018-08-07T09:37:44.018Z,100875.50
2018-08-07T09:40:14.285Z,100870.93
2018-08-07T09:42:43.760Z,100865.64
2018-08-07T09:45:15.705Z,100872.09
2018-08-07T09:47:44.931Z,100861.66
2018-08-07T09:50:14.441Z,100854.79
2018-08-07T09:52:43.297Z,100852.12
2018-08-07T09:55:11.779Z,100854.66
2018-08-07T09:57:40.159Z,100855.14
2018-08-07T10:00:21.383Z,100840.87
2018-08-07T10:02:51.289Z,100842.30
2018-08-07T10:05:21.087Z,100841.13
2018-08-07T10:07:50.113Z,100835.12
2018-08-07T10:10:18.792Z,100836.03
2018-08-07T10:12:47.472Z,100837.37
2018-08-07T10:15:16.150Z,100840.77
2018-08-07T10:17:44.637Z,100826.55
2018-08-07T10:20:13.700Z,100828.02
2018-08-07T10:22:42.414Z,100821.84
2018-08-07T10:25:12.949Z,100824.24
2018-08-07T10:27:42.858Z,100830.78
2018-08-07T10:30:15.538Z,100817.20
2018-08-07T10:32:43.992Z,100824.66
2018-08-07T10:35:12.914Z,100814.14
2018-08-07T10:37:42.298Z,100810.91
2018-08-07T10:40:12.530Z,100809.98
2018-08-07T10:42:40.947Z,100802.34
2018-08-07T10:45:11.736Z,100804.70
2018-08-07T10:47:40.581Z,100801.81
2018-08-07T10:50:15.048Z,100787.95
2018-08-07T10:52:49.655Z,100784.45
2018-08-07T10:55:18.675Z,100786.12
2018-08-07T10:57:48.444Z,100782.42
2018-08-07T11:00:20.136Z,100789.49
2018-08-07T11:02:49.740Z,100780.24
2018-08-07T11:05:18.965Z,100780.50
2018-08-07T11:07:47.454Z,100773.20
2018-08-07T11:10:16.336Z,100775.59
2018-08-07T11:12:44.945Z,100772.42
2018-08-07T11:15:16.440Z,100776.79
2018-08-07T11:17:45.253Z,100771.44
2018-08-07T11:20:14.344Z,100772.82
2018-08-07T11:22:43.968Z,100771.38
2018-08-07T11:25:12.356Z,100762.70
2018-08-07T11:27:40.717Z,100771.72
2018-08-07T11:30:13.503Z,100766.25
2018-08-07T11:32:42.075Z,100769.74
2018-08-07T11:35:10.717Z,100771.34
2018-08-07T11:37:40.633Z,100771.89
2018-08-07T11:40:11.826Z,100766.95
2018-08-07T11:42:40.203Z,100765.12
2018-08-07T11:45:11.259Z,100762.57
2018-08-07T11:47:39.727Z,100760.68
2018-08-07T11:50:10.564Z,100758.61
2018-08-07T11:52:39.258Z,100749.02
2018-08-07T11:55:08.512Z,100748.48
2018-08-07T11:57:37.240Z,100744.02
2018-08-07T12:00:11.047Z,100746.14
2018-08-07T12:02:39.456Z,100740.90
2018-08-07T12:05:08.255Z,100744.99
2018-08-07T12:07:37.022Z,100740.62
2018-08-07T12:10:06.125Z,100736.67
2018-08-07T12:12:34.511Z,100736.66
2018-08-07T12:15:02.920Z,100737.29
2018-08-07T12:17:31.426Z,100736.24
2018-08-07T12:20:34.782Z,100733.45
2018-08-07T12:23:03.209Z,100727.86
2018-08-07T12:25:31.681Z,100724.34
2018-08-07T12:28:00.124Z,100726.16
2018-08-07T12:30:29.701Z,100713.52
2018-08-07T12:32:58.377Z,100716.73
2018-08-07T12:35:26.770Z,100713.59
2018-08-07T12:37:55.198Z,100715.14
2018-08-07T12:40:26.269Z,100711.36
2018-08-07T12:42:57.400Z,100717.33
2018-08-07T12:45:25.869Z,100714.66
2018-08-07T12:47:54.404Z,100706.80
2018-08-07T12:50:22.783Z,100701.95
2018-08-07T12:52:51.188Z,100703.66
2018-08-07T12:55:21.045Z,100707.05
2018-08-07T12:57:49.851Z,100701.66
2018-08-07T13:00:32.995Z,100701.69
2018-08-07T13:03:01.380Z,100693.77
2018-08-07T13:05:29.770Z,100687.09
2018-08-07T13:07:58.159Z,100687.64
2018-08-07T13:10:26.989Z,100683.96
2018-08-07T13:12:56.241Z,100680.95
2018-08-07T13:15:24.654Z,100676.83
2018-08-07T13:17:53.089Z,100673.30
2018-08-07T13:20:21.515Z,100674.00
2018-08-07T13:22:49.908Z,100667.64
2018-08-07T13:25:20.460Z,100673.92
2018-08-07T13:27:48.884Z,100664.00
2018-08-07T13:30:23.688Z,100666.23
2018-08-07T13:32:52.053Z,100664.55
2018-08-07T13:35:20.526Z,100659.00
2018-08-07T13:37:49.911Z,100652.00
2018-08-07T13:40:19.619Z,100652.32
2018-08-07T13:42:48.001Z,100654.34
2018-08-07T13:45:18.947Z,100652.09
2018-08-07T13:47:47.343Z,100647.52
2018-08-07T13:50:18.027Z,100646.27
2018-08-07T13:52:46.943Z,100637.91
2018-08-07T13:55:16.553Z,100639.64
2018-08-07T13:57:45.444Z,100638.80
2018-08-07T14:00:17.916Z,100632.48
2018-08-07T14:02:47.113Z,100635.88
2018-08-07T14:05:16.428Z,100635.17
2018-08-07T14:07:45.300Z,100643.02
2018-08-07T14:10:14.624Z,100647.05
2018-08-07T14:12:43.262Z,100636.17
2018-08-07T14:15:13.517Z,100637.44
2018-08-07T14:17:42.911Z,100631.24
2018-08-07T14:20:12.631Z,100630.50
2018-08-07T14:22:41.245Z,100632.20
2018-08-07T14:25:13.520Z,100623.52
2018-08-07T14:27:42.034Z,100623.17
2018-08-07T14:30:14.231Z,100613.55
2018-08-07T14:32:42.611Z,100613.13
2018-08-07T14:35:11.394Z,100616.09
2018-08-07T14:37:41.798Z,100615.16
2018-08-07T14:40:11.756Z,100607.89
2018-08-07T14:42:41.760Z,100607.63
2018-08-07T14:45:12.414Z,100606.63
2018-08-07T14:47:41.616Z,100610.55
2018-08-07T14:50:12.980Z,100607.19
2018-08-07T14:52:41.924Z,100605.50
2018-08-07T14:55:11.236Z,100601.95
2018-08-07T14:57:40.239Z,100597.48
2018-08-07T15:00:12.173Z,100595.33
2018-08-07T15:02:40.625Z,100590.42
2018-08-07T15:05:09.944Z,100586.03
2018-08-07T15:07:38.680Z,100585.66
2018-08-07T15:10:09.641Z,100584.14
2018-08-07T15:12:38.081Z,100579.55
2018-08-07T15:15:09.160Z,100579.86
2018-08-07T15:17:37.540Z,100583.61
2018-08-07T15:20:06.870Z,100577.55
2018-08-07T15:22:35.277Z,100585.45
2018-08-07T15:25:03.739Z,100583.52
2018-08-07T15:27:32.116Z,100577.97
2018-08-07T15:30:00.456Z,100576.92
2018-08-07T15:32:28.875Z,100574.64
2018-08-07T15:34:57.303Z,100582.98
2018-08-07T15:37:25.723Z,100574.45
2018-08-07T15:39:54.120Z,100575.87
2018-08-07T15:42:22.589Z,100564.77
2018-08-07T15:44:50.968Z,100567.62
2018-08-07T15:47:19.418Z,100565.58
2018-08-07T15:49:47.831Z,100569.20
2018-08-07T15:52:16.233Z,100573.75
2018-08-07T15:54:44.659Z,100570.13
2018-08-07T15:57:13.088Z,100567.16
2018-08-07T15:59:41.548Z,100566.72
2018-08-07T16:02:09.957Z,100561.05
2018-08-07T16:04:38.545Z,100565.53
2018-08-07T16:07:06.992Z,100554.75
2018-08-07T16:09:35.508Z,100557.66
2018-08-07T16:12:04.363Z,100551.91
2018-08-07T16:14:32.751Z,100557.05
2018-08-07T16:17:01.203Z,100550.05
2018-08-07T16:19:29.630Z,100552.95
2018-08-07T16:21:57.983Z,100555.72
2018-08-07T16:24:26.394Z,100550.28
2018-08-07T16:26:54.945Z,100539.05
2018-08-07T16:29:23.435Z,100540.12
2018-08-07T16:31:52.106Z,100545.15
2018-08-07T16:34:20.528Z,100539.28
2018-08-07T16:36:48.984Z,100546.23
2018-08-07T16:39:17.521Z,100541.41
2018-08-07T16:41:45.935Z,100540.08
2018-08-07T16:44:14.323Z,100542.37
2018-08-07T16:46:42.692Z,100529.00
2018-08-07T16:49:11.070Z,100534.26
2018-08-07T16:51:39.483Z,100526.65
2018-08-07T16:54:07.934Z,100529.12
2018-08-07T16:56:36.355Z,100534.95
2018-08-07T16:59:04.929Z,100531.02
2018-08-07T17:01:33.335Z,100540.55
2018-08-07T17:04:01.858Z,100537.55
2018-08-07T17:06:30.272Z,100533.90
2018-08-07T17:08:58.718Z,100533.36
2018-08-07T17:11:27.184Z,100532.52
2018-08-07T17:13:55.674Z,100534.77
2018-08-07T17:16:24.169Z,100531.05
2018-08-07T17:18:52.580Z,100530.94
2018-08-07T17:21:20.988Z,100533.95
2018-08-07T17:23:49.449Z,100536.73
2018-08-07T17:26:17.880Z,100532.26
2018-08-07T17:28:46.349Z,100528.52
2018-08-07T17:31:14.740Z,100527.66
2018-08-07T17:33:43.133Z,100527.98
2018-08-07T17:36:11.543Z,100530.88
2018-08-07T17:40:05.281Z,100526.51
2018-08-07T17:42:33.725Z,100520.30
2018-08-07T17:45:02.106Z,100521.91
2018-08-07T17:47:30.521Z,100522.14
2018-08-07T17:49:58.960Z,100525.23
2018-08-07T17:52:27.391Z,100524.69
2018-08-07T17:54:55.827Z,100527.66
2018-08-07T17:57:24.207Z,100536.13
2018-08-07T17:59:53.068Z,100532.81
2018-08-07T18:02:21.440Z,100544.23
2018-08-07T18:04:49.926Z,100545.30
2018-08-07T18:07:18.461Z,100543.91
2018-08-07T18:09:46.891Z,100548.52
2018-08-07T18:12:15.412Z,100548.39
2018-08-07T18:14:44.572Z,100547.33
2018-08-07T18:17:13.152Z,100554.05
2018-08-07T18:19:41.598Z,100544.12
2018-08-07T18:22:10.356Z,100550.81
2018-08-07T18:24:38.808Z,100550.70
2018-08-07T18:27:07.421Z,100549.29
2018-08-07T18:29:36.000Z,100556.55
2018-08-07T18:32:04.517Z,100553.96
2018-08-07T18:34:32.968Z,100557.56
2018-08-07T18:37:01.403Z,100554.22
2018-08-07T18:39:29.882Z,100549.84
2018-08-07T18:41:58.304Z,100554.81
2018-08-07T18:44:26.750Z,100557.77
2018-08-07T18:46:55.162Z,100558.67
2018-08-07T18:49:23.924Z,100557.38
2018-08-07T18:51:53.505Z,100554.38
2018-08-07T18:54:21.937Z,100552.41
2018-08-07T18:56:51.025Z,100556.20
2018-08-07T18:59:19.552Z,100552.27
2018-08-07T19:01:48.010Z,100553.11
2018-08-07T19:04:16.484Z,100556.63
2018-08-07T19:06:45.384Z,100558.73
2018-08-07T19:09:14.642Z,100558.82
2018-08-07T19:11:43.181Z,100558.13
2018-08-07T19:14:11.729Z,100560.13
2018-08-07T19:16:40.222Z,100556.42
2018-08-07T19:19:08.634Z,100558.69
2018-08-07T19:21:37.181Z,100557.20
2018-08-07T19:24:05.598Z,100561.11
2018-08-07T19:26:34.146Z,100558.20
2018-08-07T19:29:02.579Z,100563.42
2018-08-07T19:31:31.006Z,100562.64
2018-08-07T19:33:59.520Z,100562.58
2018-08-07T19:36:28.071Z,100559.35
2018-08-07T19:38:56.550Z,100567.16
2018-08-07T19:41:24.968Z,100567.23
2018-08-07T19:43:53.471Z,100569.55
2018-08-07T19:46:21.927Z,100572.70
2018-08-07T19:48:50.984Z,100566.27
2018-08-07T19:51:19.783Z,100562.58
2018-08-07T19:53:48.436Z,100566.48
2018-08-07T19:56:17.432Z,100567.93
2018-08-07T19:58:45.870Z,100569.23
2018-08-07T20:01:14.253Z,100570.16
2018-08-07T20:03:42.754Z,100572.66
2018-08-07T20:06:11.208Z,100571.02
2018-08-07T20:08:39.612Z,100574.31
2018-08-07T20:11:08.041Z,100567.34
2018-08-07T20:13:36.425Z,100570.88
2018-08-07T20:16:04.936Z,100570.76
2018-08-07T20:18:33.721Z,100568.38
2018-08-07T20:21:02.652Z,100575.98
2018-08-07T20:23:31.038Z,100571.95
2018-08-07T20:26:00.118Z,100580.25
2018-08-07T20:28:28.488Z,100565.04
2018-08-07T20:30:57.524Z,100572.45
2018-08-07T20:33:25.917Z,100567.80
2018-08-07T20:35:54.323Z,100578.39
2018-08-07T20:38:22.723Z,100574.67
2018-08-07T20:40:51.108Z,100581.11
2018-08-07T20:43:19.488Z,100576.28
2018-08-07T20:45:47.938Z,100577.03
2018-08-07T20:48:16.830Z,100571.55
2018-08-07T20:50:46.808Z,100572.66
2018-08-07T20:53:15.347Z,100574.05
2018-08-07T20:55:43.913Z,100575.52
2018-08-07T20:58:12.291Z,100582.11
2018-08-07T21:00:40.671Z,100582.04
2018-08-07T21:03:09.042Z,100584.12
2018-08-07T21:05:37.524Z,100577.13
2018-08-07T21:08:05.969Z,100575.59
2018-08-07T21:10:34.385Z,100581.53
2018-08-07T21:13:02.721Z,100581.21
2018-08-07T21:15:31.121Z,100572.24
2018-08-07T21:17:59.489Z,100571.83
2018-08-07T21:20:28.373Z,100570.17
2018-08-07T21:22:57.256Z,100585.39
2018-08-07T21:25:25.651Z,100583.39
2018-08-07T21:27:55.827Z,100592.89
2018-08-07T21:30:26.191Z,100595.52
2018-08-07T21:32:54.611Z,100592.46
2018-08-07T21:35:23.036Z,100596.47
2018-08-07T21:37:51.576Z,100586.84
2018-08-07T21:40:21.249Z,100587.01
2018-08-07T21:42:50.569Z,100589.11
2018-08-07T21:45:19.752Z,100584.64
2018-08-07T21:47:48.365Z,100589.47
2018-08-07T21:50:18.667Z,100582.94
2018-08-07T21:52:47.063Z,100579.55
2018-08-07T21:55:16.699Z,100585.42
2018-08-07T21:57:45.281Z,100579.94
2018-08-07T22:00:16.532Z,100581.70
2018-08-07T22:02:45.413Z,100580.32
2018-08-07T22:05:13.985Z,100585.00
2018-08-07T22:07:42.462Z,100584.17
2018-08-07T22:10:17.602Z,100568.52
2018-08-07T22:12:46.412Z,100575.10
2018-08-07T22:15:15.729Z,100576.50
2018-08-07T22:17:45.424Z,100579.28
2018-08-07T22:20:14.115Z,100575.33
2018-08-07T22:22:43.259Z,100580.86
2018-08-07T22:25:11.918Z,100576.39
2018-08-07T22:27:40.475Z,100575.69
2018-08-07T22:30:13.843Z,100571.42
2018-08-07T22:32:42.329Z,100574.33
2018-08-07T22:35:11.054Z,100577.82
2018-08-07T22:37:39.859Z,100580.92
2018-08-07T22:40:09.024Z,100577.51
2018-08-07T22:42:37.854Z,100580.95
2018-08-07T22:45:07.980Z,100581.48
2018-08-07T22:47:36.394Z,100580.98
2018-08-07T22:50:05.680Z,100586.16
2018-08-07T22:52:34.042Z,100588.22
2018-08-07T22:55:02.475Z,100588.08
2018-08-07T22:57:30.864Z,100578.93
2018-08-07T22:59:59.348Z,100579.66
2018-08-07T23:02:27.661Z,100585.50
2018-08-07T23:04:56.046Z,100586.73
2018-08-07T23:07:24.417Z,100584.33
2018-08-07T23:09:52.995Z,100581.06
2018-08-07T23:12:21.349Z,100578.98
2018-08-07T23:14:49.726Z,100576.61
2018-08-07T23:17:18.172Z,100570.04
2018-08-07T23:19:46.566Z,100568.67
2018-08-07T23:22:14.911Z,100567.30
2018-08-07T23:24:43.251Z,100564.56
2018-08-07T23:27:11.822Z,100568.36
2018-08-07T23:29:40.243Z,100564.91
2018-08-07T23:32:08.648Z,100566.10
2018-08-07T23:34:37.541Z,100567.67
2018-08-07T23:37:06.037Z,100563.88
2018-08-07T23:39:34.397Z,100559.42
2018-08-07T23:42:03.013Z,100562.17
2018-08-07T23:44:31.359Z,100561.84
2018-08-07T23:46:59.709Z,100561.14
2018-08-07T23:49:28.221Z,100557.88
2018-08-07T23:51:56.568Z,100562.52
2018-08-07T23:54:24.980Z,100561.85
2018-08-07T23:56:53.352Z,100549.30
2018-08-07T23:59:21.710Z,100544.84
